RDOO2: Fourche Maline, Red Oak

Data processed at Sat Dec 15 2018 23:32


All information presented herein is the property of the government of the United States of America and may be revised or deleted at any time without prior notice.
Dissemination of this information without the expressed written consent of the Public Affairs Office, Tulsa District U.S. Army Corps of Engineers is strictly prohibited.
These data are gathered electronically and, as presented, have not undergone any form of quality control. These data are not guaranteed to be valid or correct.
Go to home page.
Go to station list.
Go to home page.

Downstream station:


Previous Day
Next Day
Current Day
    
SHEF ID:       RDOO2     Fourche Maline near Red Oak, OK
STATION TYPE:  

               PRECIP     STAGE  STAGE(2)  RIV-FLOW  BAT-LOAD
                   in        ft        ft       cfs      volt
              Ccp-Rev   Ccp-Rev   Ccp-Rev   Ccp-Rev   Ccp-Rev
(US/Central)
12/15 00:00      0.00     11.51     11.55      1637     12.60
12/15 01:00      0.01     11.38     11.38      1600     12.60
12/15 02:00      0.01     11.17     11.22      1550     12.60
12/15 03:00      0.01     11.05     11.04      1521     12.60
12/15 04:00      0.00     10.87     10.87      1479     12.60
12/15 05:00      0.01     10.67     10.70      1432     12.60
12/15 06:00      0.00     10.53     10.52      1400     12.54
12/15 07:00      0.00     10.36     10.36      1362     12.54
12/15 08:00      0.01     10.15     10.19      1314     12.54
12/15 09:00      0.00     10.02     10.01      1285     12.54
12/15 10:00      0.00      9.85      9.84      1248     12.95
12/15 11:00      0.00      9.69      9.67      1213     13.71
12/15 12:00      0.00      9.47      9.50      1166     13.77
12/15 13:00      0.00      9.32      9.32      1134     13.59
12/15 14:00      0.00      9.16      9.16      1101     13.65
12/15 15:00      0.00      9.01      9.00      1069     13.71
12/15 16:00      0.00      8.87      8.87      1040     13.30
12/15 17:00      0.00      8.72      8.72      1010     13.07
12/15 18:00      0.00      8.60      8.59       985     13.00
12/15 19:00      0.00      8.46      8.47       957     12.95
12/15 20:00      0.00      8.34      8.36       933     12.89
12/15 21:00      0.00      8.26      8.26       918     12.89
12/15 22:00      0.00      8.18      8.18       902     12.83
12/15 23:00      0.00      8.05      8.09       877     12.83